createdAt,value
2019-06-20T00:02:07.643Z,17.00
2019-06-20T00:04:35.038Z,16.97
2019-06-20T00:07:02.387Z,16.98
2019-06-20T00:09:29.423Z,17.02
2019-06-20T00:11:56.486Z,17.06
2019-06-20T00:14:23.515Z,17.10
2019-06-20T00:16:50.826Z,17.08
2019-06-20T00:19:17.964Z,17.07
2019-06-20T00:21:45.008Z,17.09
2019-06-20T00:24:12.049Z,17.16
2019-06-20T00:26:39.379Z,17.15
2019-06-20T00:29:06.756Z,17.13
2019-06-20T00:31:33.812Z,17.09
2019-06-20T00:34:00.851Z,17.04
2019-06-20T00:36:27.907Z,17.07
2019-06-20T00:38:55.234Z,17.14
2019-06-20T00:41:22.287Z,17.19
2019-06-20T00:43:49.659Z,17.26
2019-06-20T00:46:16.955Z,17.27
2019-06-20T00:48:44.368Z,17.23
2019-06-20T00:51:11.717Z,17.20
2019-06-20T00:53:38.759Z,17.18
2019-06-20T00:56:06.059Z,17.20
2019-06-20T00:58:33.218Z,17.22
2019-06-20T01:01:00.434Z,17.24
2019-06-20T01:03:28.808Z,17.23
2019-06-20T01:05:56.141Z,17.21
2019-06-20T01:08:23.494Z,17.16
2019-06-20T01:10:50.550Z,17.12
2019-06-20T01:13:32.464Z,17.05
2019-06-20T01:15:46.586Z,16.97
2019-06-20T01:18:13.632Z,16.96
2019-06-20T01:20:40.683Z,16.96
2019-06-20T01:23:08.039Z,16.90
2019-06-20T01:25:35.398Z,16.85
2019-06-20T01:28:02.684Z,16.79
2019-06-20T01:30:31.032Z,16.73
2019-06-20T01:32:58.085Z,16.70
2019-06-20T01:35:25.584Z,16.72
2019-06-20T01:37:52.622Z,16.72
2019-06-20T01:40:19.658Z,16.74
2019-06-20T01:42:47.000Z,16.75
2019-06-20T01:45:14.336Z,16.67
2019-06-20T01:47:41.398Z,16.68
2019-06-20T01:50:08.737Z,16.70
2019-06-20T01:52:35.790Z,16.70
2019-06-20T01:55:02.903Z,16.71
2019-06-20T01:57:29.957Z,16.71
2019-06-20T01:59:57.245Z,16.68
2019-06-20T02:02:24.296Z,16.68
2019-06-20T02:04:51.657Z,16.62
2019-06-20T02:07:19.001Z,16.55
2019-06-20T02:09:46.313Z,16.48
2019-06-20T02:12:13.707Z,16.44
2019-06-20T02:14:40.752Z,16.42
2019-06-20T02:17:07.851Z,16.39
2019-06-20T02:19:35.261Z,16.36
2019-06-20T02:22:02.591Z,16.34
2019-06-20T02:24:29.636Z,16.34
2019-06-20T02:26:56.951Z,16.26
2019-06-20T02:29:23.993Z,16.19
2019-06-20T02:31:51.128Z,16.16
2019-06-20T02:34:19.594Z,16.16
2019-06-20T02:36:46.659Z,16.18
2019-06-20T02:39:13.700Z,16.20
2019-06-20T02:41:41.049Z,16.18
2019-06-20T02:44:28.477Z,16.15
2019-06-20T02:46:37.153Z,16.10
2019-06-20T02:49:04.209Z,16.05
2019-06-20T02:51:31.244Z,15.97
2019-06-20T02:53:58.307Z,15.87
2019-06-20T02:56:25.589Z,15.65
2019-06-20T02:58:52.644Z,15.48
2019-06-20T03:01:19.924Z,15.39
2019-06-20T03:03:47.261Z,15.43
2019-06-20T03:06:14.303Z,15.47
2019-06-20T03:08:42.708Z,15.48
2019-06-20T03:11:09.746Z,15.55
2019-06-20T03:13:37.071Z,15.63
2019-06-20T03:16:04.118Z,15.64
2019-06-20T03:18:31.173Z,15.59
2019-06-20T03:20:58.211Z,15.57
2019-06-20T03:23:25.575Z,15.53
2019-06-20T03:25:52.921Z,15.47
2019-06-20T03:28:20.300Z,15.46
2019-06-20T03:30:47.651Z,15.41
2019-06-20T03:33:14.691Z,15.33
2019-06-20T03:35:42.058Z,15.20
2019-06-20T03:38:09.115Z,15.15
2019-06-20T03:40:36.225Z,15.09
2019-06-20T03:43:03.591Z,14.96
2019-06-20T03:45:30.637Z,14.89
2019-06-20T03:47:57.691Z,14.97
2019-06-20T03:50:25.962Z,15.06
2019-06-20T03:52:53.019Z,15.11
2019-06-20T03:55:20.058Z,15.14
2019-06-20T03:57:47.110Z,15.11
2019-06-20T04:00:14.156Z,15.01
2019-06-20T04:02:41.520Z,14.85
2019-06-20T04:05:08.572Z,14.79
2019-06-20T04:07:35.612Z,14.63
2019-06-20T04:10:02.966Z,14.65
2019-06-20T04:12:31.066Z,14.76
2019-06-20T04:14:58.363Z,14.77
2019-06-20T04:17:25.453Z,14.79
2019-06-20T04:19:52.810Z,14.87
2019-06-20T04:22:19.855Z,14.94
2019-06-20T04:24:46.913Z,15.00
2019-06-20T04:27:13.949Z,15.05
2019-06-20T04:29:41.294Z,15.13
2019-06-20T04:32:08.663Z,15.18
2019-06-20T04:34:35.717Z,15.21
2019-06-20T04:37:02.762Z,15.24
2019-06-20T04:39:29.820Z,15.32
2019-06-20T04:41:57.148Z,15.35
2019-06-20T04:44:24.451Z,15.38
2019-06-20T04:46:51.494Z,15.41
2019-06-20T04:49:19.852Z,15.39
2019-06-20T04:51:47.077Z,15.38
2019-06-20T04:54:14.112Z,15.42
2019-06-20T04:56:41.478Z,15.42
2019-06-20T04:59:08.532Z,15.49
2019-06-20T05:01:35.572Z,15.54
2019-06-20T05:04:02.939Z,15.60
2019-06-20T05:06:29.989Z,15.68
2019-06-20T05:08:57.047Z,15.70
2019-06-20T05:11:25.155Z,15.70
2019-06-20T05:13:52.528Z,15.61
2019-06-20T05:16:19.566Z,15.60
2019-06-20T05:18:46.845Z,15.56
2019-06-20T05:21:13.900Z,15.65
2019-06-20T05:23:43.137Z,15.65
2019-06-20T05:26:10.184Z,15.58
2019-06-20T05:28:37.244Z,15.50
2019-06-20T05:31:04.281Z,15.46
2019-06-20T05:33:31.327Z,15.45
2019-06-20T05:35:58.379Z,15.46
2019-06-20T05:38:25.681Z,15.39
2019-06-20T05:40:52.730Z,15.34
2019-06-20T05:43:20.098Z,15.37
2019-06-20T05:45:48.761Z,15.28
2019-06-20T05:48:16.459Z,15.23
2019-06-20T05:50:43.504Z,15.29
2019-06-20T05:53:10.705Z,15.35
2019-06-20T05:55:38.108Z,15.43
2019-06-20T05:58:05.148Z,15.48
2019-06-20T06:00:32.507Z,15.51
2019-06-20T06:02:59.544Z,15.50
2019-06-20T06:05:26.681Z,15.53
2019-06-20T06:07:53.959Z,15.56
2019-06-20T06:10:21.021Z,15.61
2019-06-20T06:12:48.076Z,15.57
2019-06-20T06:15:15.127Z,15.55
2019-06-20T06:17:42.457Z,15.70
2019-06-20T06:20:09.946Z,15.80
2019-06-20T06:22:40.364Z,15.86
2019-06-20T06:27:41.850Z,16.18
2019-06-20T06:30:09.879Z,16.36
2019-06-20T06:32:40.303Z,16.54
2019-06-20T06:35:05.670Z,16.84
2019-06-20T06:37:33.093Z,17.18
2019-06-20T06:40:00.157Z,17.72
2019-06-20T06:42:27.199Z,18.79
2019-06-20T06:47:39.820Z,20.12
2019-06-20T06:50:06.878Z,20.54
2019-06-20T06:52:34.203Z,20.81
2019-06-20T06:55:01.274Z,20.92
2019-06-20T06:57:28.322Z,21.27
2019-06-20T06:59:55.357Z,21.39
2019-06-20T07:02:22.708Z,21.28
2019-06-20T07:04:49.760Z,21.04
2019-06-20T07:07:16.820Z,20.99
2019-06-20T07:09:44.156Z,21.04
2019-06-20T07:12:11.524Z,21.01
2019-06-20T07:14:42.405Z,21.04
2019-06-20T07:17:07.430Z,21.20
2019-06-20T07:19:34.469Z,21.48
2019-06-20T07:22:01.953Z,21.96
2019-06-20T07:24:28.997Z,22.33
2019-06-20T07:29:39.534Z,22.90
2019-06-20T07:32:06.967Z,23.15
2019-06-20T07:34:34.016Z,23.46
2019-06-20T07:37:01.339Z,24.14
2019-06-20T07:39:28.378Z,24.67
2019-06-20T07:41:55.760Z,25.14
2019-06-20T07:44:23.114Z,25.15
2019-06-20T07:46:50.465Z,24.72
2019-06-20T07:49:17.507Z,24.99
2019-06-20T07:51:44.564Z,25.74
2019-06-20T07:54:11.923Z,26.30
2019-06-20T07:56:38.987Z,26.64
2019-06-20T07:59:06.034Z,26.48
2019-06-20T08:01:33.357Z,25.96
2019-06-20T08:04:07.606Z,25.88
2019-06-20T08:06:34.936Z,25.82
2019-06-20T08:09:02.292Z,25.25
2019-06-20T08:11:31.108Z,24.77
2019-06-20T08:13:58.146Z,24.80
2019-06-20T08:16:25.199Z,24.77
2019-06-20T08:18:52.502Z,24.75
2019-06-20T08:21:19.555Z,24.87
2019-06-20T08:23:46.923Z,25.55
2019-06-20T08:26:13.968Z,25.84
2019-06-20T08:28:41.352Z,26.06
2019-06-20T08:31:08.371Z,26.67
2019-06-20T08:33:35.431Z,26.37
2019-06-20T08:36:02.778Z,26.55
2019-06-20T08:38:31.175Z,26.94
2019-06-20T08:40:58.553Z,27.08
2019-06-20T08:43:26.051Z,26.99
2019-06-20T08:45:53.086Z,27.49
2019-06-20T08:48:20.384Z,27.87
2019-06-20T08:50:47.418Z,28.05
2019-06-20T08:53:14.775Z,28.21
2019-06-20T08:55:41.822Z,27.47
2019-06-20T08:58:08.875Z,26.81
2019-06-20T09:00:36.235Z,26.29
2019-06-20T09:05:45.822Z,26.41
2019-06-20T09:08:12.871Z,27.13
2019-06-20T09:10:39.927Z,26.96
2019-06-20T09:13:07.261Z,26.47
2019-06-20T09:15:34.593Z,25.72
2019-06-20T09:18:02.891Z,25.23
2019-06-20T09:20:30.480Z,24.78
2019-06-20T09:22:58.828Z,24.94
2019-06-20T09:25:25.998Z,25.82
2019-06-20T09:27:54.413Z,26.42
2019-06-20T09:30:22.715Z,26.12
2019-06-20T09:32:52.252Z,25.85
2019-06-20T09:35:18.963Z,26.01
2019-06-20T09:37:46.017Z,26.20
2019-06-20T09:40:13.064Z,26.28
2019-06-20T09:42:40.434Z,26.53
2019-06-20T09:45:08.722Z,26.41
2019-06-20T09:47:36.047Z,26.30
2019-06-20T09:50:03.426Z,26.22
2019-06-20T09:52:30.489Z,26.36
2019-06-20T09:54:58.326Z,27.02
2019-06-20T09:57:25.413Z,27.32
2019-06-20T10:00:03.188Z,27.32
2019-06-20T10:02:21.915Z,26.98
2019-06-20T10:04:49.501Z,26.64
2019-06-20T10:07:17.954Z,26.58
2019-06-20T10:09:46.672Z,26.78
2019-06-20T10:12:14.425Z,27.41
2019-06-20T10:14:41.787Z,27.81
2019-06-20T10:17:08.817Z,28.20
2019-06-20T10:19:36.186Z,28.56
2019-06-20T10:22:03.224Z,28.21
2019-06-20T10:24:30.574Z,28.55
2019-06-20T10:26:58.590Z,28.99
2019-06-20T10:29:25.998Z,29.14
2019-06-20T10:31:53.367Z,29.26
2019-06-20T10:34:20.502Z,28.73
2019-06-20T10:36:48.163Z,28.12
2019-06-20T10:39:16.402Z,27.61
2019-06-20T10:41:44.855Z,28.19
2019-06-20T10:44:12.497Z,29.14
2019-06-20T10:46:39.544Z,29.92
2019-06-20T10:49:06.605Z,29.34
2019-06-20T10:51:33.931Z,27.87
2019-06-20T10:54:01.308Z,27.06
2019-06-20T10:56:28.644Z,26.67
2019-06-20T10:58:56.001Z,26.29
2019-06-20T11:01:23.045Z,26.06
2019-06-20T11:03:50.400Z,25.56
2019-06-20T11:06:17.438Z,25.68
2019-06-20T11:08:45.137Z,25.61
2019-06-20T11:11:13.537Z,26.14
2019-06-20T11:13:42.124Z,26.80
2019-06-20T11:16:09.538Z,26.83
2019-06-20T11:18:38.310Z,27.04
2019-06-20T11:21:05.492Z,26.87
2019-06-20T11:23:32.545Z,26.51
2019-06-20T11:25:59.585Z,25.92
2019-06-20T11:28:27.973Z,25.70
2019-06-20T11:31:00.141Z,25.67
2019-06-20T11:33:23.784Z,25.66
2019-06-20T11:35:51.138Z,25.57
2019-06-20T11:38:18.489Z,25.50
2019-06-20T11:40:45.854Z,25.32
2019-06-20T11:43:13.201Z,25.28
2019-06-20T11:45:40.926Z,25.13
2019-06-20T11:48:07.928Z,24.84
2019-06-20T11:50:36.300Z,24.43
2019-06-20T11:53:03.484Z,23.28
2019-06-20T11:55:30.779Z,21.55
2019-06-20T11:57:57.822Z,20.33
2019-06-20T12:00:24.875Z,19.42
2019-06-20T12:02:52.275Z,19.46
2019-06-20T12:05:19.323Z,20.04
2019-06-20T12:07:47.908Z,20.48
2019-06-20T12:10:15.137Z,21.21
2019-06-20T12:12:42.665Z,22.30
2019-06-20T12:15:10.048Z,23.35
2019-06-20T12:17:39.330Z,24.10
2019-06-20T12:20:05.842Z,23.96
2019-06-20T12:22:33.137Z,24.97
2019-06-20T12:25:00.192Z,25.68
2019-06-20T12:27:27.540Z,25.66
2019-06-20T12:29:55.803Z,25.30
2019-06-20T12:32:23.091Z,24.93
2019-06-20T12:34:50.390Z,24.68
2019-06-20T12:37:17.506Z,24.59
2019-06-20T12:39:44.586Z,24.57
2019-06-20T12:42:11.631Z,24.43
2019-06-20T12:44:40.113Z,24.10
2019-06-20T12:47:07.162Z,23.38
2019-06-20T12:49:34.223Z,22.69
2019-06-20T12:52:01.278Z,22.11
2019-06-20T12:54:30.269Z,21.79
2019-06-20T12:56:57.493Z,21.46
2019-06-20T12:59:24.815Z,21.09
2019-06-20T13:01:52.114Z,21.01
2019-06-20T13:04:19.171Z,20.92
2019-06-20T13:06:46.969Z,20.73
2019-06-20T13:09:14.115Z,20.57
2019-06-20T13:11:41.174Z,20.46
2019-06-20T13:14:08.454Z,20.44
2019-06-20T13:16:35.796Z,20.54
2019-06-20T13:19:02.831Z,20.69
2019-06-20T13:21:29.879Z,20.87
2019-06-20T13:23:57.171Z,21.23
2019-06-20T13:26:24.219Z,21.71
2019-06-20T13:29:03.273Z,22.30
2019-06-20T13:31:21.260Z,22.60
2019-06-20T13:33:48.952Z,22.70
2019-06-20T13:36:16.070Z,22.52
2019-06-20T13:38:44.458Z,22.28
2019-06-20T13:41:11.898Z,22.16
2019-06-20T13:43:38.938Z,22.17
2019-06-20T13:46:06.290Z,22.32
2019-06-20T13:48:33.330Z,22.50
2019-06-20T13:51:00.648Z,22.58
2019-06-20T13:53:27.754Z,22.61
2019-06-20T13:55:54.818Z,22.57
2019-06-20T13:58:22.155Z,22.59
2019-06-20T14:00:50.870Z,22.63
2019-06-20T14:03:18.117Z,22.57
2019-06-20T14:05:45.534Z,22.43
2019-06-20T14:08:12.887Z,22.15
2019-06-20T14:10:40.296Z,21.75
2019-06-20T14:13:18.620Z,21.07
2019-06-20T14:15:36.058Z,20.05
2019-06-20T14:18:03.111Z,19.09
2019-06-20T14:20:30.489Z,18.67
2019-06-20T14:22:57.859Z,18.19
2019-06-20T14:25:24.914Z,17.76
2019-06-20T14:27:52.243Z,17.27
2019-06-20T14:30:19.285Z,16.88
2019-06-20T14:32:47.234Z,16.76
2019-06-20T14:35:14.286Z,16.77
2019-06-20T14:37:43.439Z,16.74
2019-06-20T14:40:10.556Z,16.92
2019-06-20T14:42:38.911Z,17.06
2019-06-20T14:45:07.643Z,17.01
2019-06-20T14:47:35.741Z,17.00
2019-06-20T14:50:02.772Z,17.18
2019-06-20T14:52:29.831Z,17.42
2019-06-20T14:54:57.137Z,17.65
2019-06-20T14:57:24.506Z,17.89
2019-06-20T14:59:52.643Z,18.06
2019-06-20T15:02:20.132Z,18.26
2019-06-20T15:04:47.868Z,18.36
2019-06-20T15:07:14.923Z,18.41
2019-06-20T15:09:41.960Z,18.55
2019-06-20T15:12:09.048Z,18.76
2019-06-20T15:14:36.066Z,19.00
2019-06-20T15:17:03.455Z,19.21
2019-06-20T15:19:30.506Z,19.47
2019-06-20T15:21:57.598Z,19.66
2019-06-20T15:24:25.698Z,19.76
2019-06-20T15:26:53.965Z,19.91
2019-06-20T15:29:21.276Z,19.95
2019-06-20T15:31:49.035Z,20.09
2019-06-20T15:34:17.693Z,20.09
2019-06-20T15:36:45.045Z,20.12
2019-06-20T15:39:12.087Z,20.14
2019-06-20T15:41:39.552Z,20.08
2019-06-20T15:44:06.599Z,19.99
2019-06-20T15:46:33.878Z,19.94
2019-06-20T15:49:15.334Z,19.87
2019-06-20T15:51:30.019Z,19.88
2019-06-20T15:53:57.357Z,19.91
2019-06-20T15:56:24.579Z,19.91
2019-06-20T15:58:52.601Z,19.88
2019-06-20T16:01:19.643Z,19.81
2019-06-20T16:03:46.713Z,19.73
2019-06-20T16:06:14.018Z,19.69
2019-06-20T16:08:41.154Z,19.71
2019-06-20T16:11:08.203Z,19.74
2019-06-20T16:13:35.270Z,19.76
2019-06-20T16:16:02.354Z,19.85
2019-06-20T16:18:29.414Z,19.88
2019-06-20T16:20:56.465Z,19.91
2019-06-20T16:23:23.767Z,19.89
2019-06-20T16:25:50.809Z,19.81
2019-06-20T16:28:17.866Z,19.74
2019-06-20T16:30:48.286Z,19.75
2019-06-20T16:33:24.680Z,19.73
2019-06-20T16:35:44.226Z,19.66
2019-06-20T16:38:11.286Z,19.68
2019-06-20T16:40:39.066Z,19.72
2019-06-20T16:43:06.124Z,19.74
2019-06-20T16:45:33.462Z,19.72
2019-06-20T16:48:00.752Z,19.67
2019-06-20T16:50:28.867Z,19.59
2019-06-20T16:52:55.905Z,19.50
2019-06-20T16:55:22.977Z,19.47
2019-06-20T16:57:50.317Z,19.41
2019-06-20T17:00:17.391Z,19.32
2019-06-20T17:02:44.747Z,19.21
2019-06-20T17:05:11.797Z,19.14
2019-06-20T17:07:38.837Z,19.18
2019-06-20T17:10:05.912Z,19.20
2019-06-20T17:12:33.199Z,19.27
2019-06-20T17:15:00.255Z,19.25
2019-06-20T17:17:27.374Z,19.26
2019-06-20T17:19:54.427Z,19.25
2019-06-20T17:22:21.487Z,19.21
2019-06-20T17:24:48.533Z,19.18
2019-06-20T17:27:15.926Z,19.11
2019-06-20T17:29:42.972Z,19.05
2019-06-20T17:32:10.015Z,18.98
2019-06-20T17:34:37.379Z,18.92
2019-06-20T17:37:04.486Z,18.92
2019-06-20T17:39:31.896Z,18.91
2019-06-20T17:41:58.958Z,18.93
2019-06-20T17:44:27.526Z,18.97
2019-06-20T17:46:56.032Z,18.93
2019-06-20T17:49:23.327Z,18.91
2019-06-20T17:51:50.431Z,18.87
2019-06-20T17:54:17.788Z,18.89
2019-06-20T17:56:44.870Z,19.00
2019-06-20T17:59:12.048Z,19.12
2019-06-20T18:01:39.342Z,19.25
2019-06-20T18:04:13.662Z,19.31
2019-06-20T18:06:35.473Z,19.31
2019-06-20T18:09:03.135Z,19.29
2019-06-20T18:11:31.820Z,19.26
2019-06-20T18:13:58.883Z,19.23
2019-06-20T18:16:25.945Z,19.20
2019-06-20T18:18:52.989Z,19.17
2019-06-20T18:21:20.399Z,19.03
2019-06-20T18:23:47.754Z,18.97
2019-06-20T18:26:14.813Z,18.92
2019-06-20T18:28:42.637Z,18.91
2019-06-20T18:31:10.026Z,18.92
2019-06-20T18:33:37.092Z,18.96
2019-06-20T18:36:04.179Z,18.97
2019-06-20T18:38:31.583Z,18.95
2019-06-20T18:40:58.647Z,18.93
2019-06-20T18:43:25.983Z,18.90
2019-06-20T18:45:53.053Z,18.82
2019-06-20T18:48:20.106Z,18.75
2019-06-20T18:50:47.211Z,18.66
2019-06-20T18:53:14.514Z,18.63
2019-06-20T18:55:41.834Z,18.61
2019-06-20T18:58:09.188Z,18.59
2019-06-20T19:00:36.265Z,18.55
2019-06-20T19:03:03.314Z,18.47
2019-06-20T19:05:30.409Z,18.42
2019-06-20T19:07:57.859Z,18.39
2019-06-20T19:10:25.251Z,18.35
2019-06-20T19:12:52.672Z,18.32
2019-06-20T19:15:19.956Z,18.27
2019-06-20T19:17:47.312Z,18.25
2019-06-20T19:20:14.686Z,18.24
2019-06-20T19:22:42.024Z,18.23
2019-06-20T19:25:09.099Z,18.20
2019-06-20T19:27:45.492Z,18.14
2019-06-20T19:30:05.072Z,18.15
2019-06-20T19:32:32.463Z,18.11
2019-06-20T19:35:02.534Z,18.10
2019-06-20T19:37:28.591Z,18.11
2019-06-20T19:39:55.632Z,18.07
2019-06-20T19:42:22.929Z,18.06
2019-06-20T19:44:50.273Z,18.06
2019-06-20T19:47:17.357Z,17.96
2019-06-20T19:49:44.662Z,17.89
2019-06-20T19:52:11.987Z,17.81
2019-06-20T19:54:39.021Z,17.73
2019-06-20T19:57:06.318Z,17.71
2019-06-20T19:59:33.469Z,17.67
2019-06-20T20:02:00.502Z,17.67
2019-06-20T20:04:27.899Z,17.68
2019-06-20T20:06:54.955Z,17.70
2019-06-20T20:09:21.996Z,17.69
2019-06-20T20:11:49.389Z,17.67
2019-06-20T20:14:16.462Z,17.67
2019-06-20T20:16:43.521Z,17.65
2019-06-20T20:19:10.878Z,17.61
2019-06-20T20:21:37.931Z,17.56
2019-06-20T20:24:05.277Z,17.52
2019-06-20T20:26:32.656Z,17.52
2019-06-20T20:28:59.991Z,17.52
2019-06-20T20:31:27.055Z,17.56
2019-06-20T20:33:54.092Z,17.64
2019-06-20T20:36:25.302Z,17.74
2019-06-20T20:38:50.434Z,17.82
2019-06-20T20:41:17.487Z,17.88
2019-06-20T20:43:44.528Z,17.86
2019-06-20T20:46:11.568Z,17.82
2019-06-20T20:48:39.039Z,17.78
2019-06-20T20:51:06.084Z,17.74
2019-06-20T20:53:33.155Z,17.69
2019-06-20T20:56:02.443Z,17.64
2019-06-20T20:58:29.590Z,17.60
2019-06-20T21:00:56.938Z,17.56
2019-06-20T21:03:24.028Z,17.53
2019-06-20T21:05:51.942Z,17.53
2019-06-20T21:08:19.314Z,17.56
2019-06-20T21:10:46.353Z,17.60
2019-06-20T21:13:13.731Z,17.62
2019-06-20T21:15:40.756Z,17.63
2019-06-20T21:18:07.813Z,17.64
2019-06-20T21:20:34.858Z,17.62
2019-06-20T21:23:01.910Z,17.64
2019-06-20T21:25:32.031Z,17.60
2019-06-20T21:27:57.714Z,17.57
2019-06-20T21:30:24.754Z,17.53
2019-06-20T21:32:52.080Z,17.52
2019-06-20T21:35:19.145Z,17.52
2019-06-20T21:37:46.274Z,17.50
2019-06-20T21:40:13.595Z,17.49
2019-06-20T21:42:40.648Z,17.46
2019-06-20T21:45:07.943Z,17.45
2019-06-20T21:47:35.001Z,17.46
2019-06-20T21:50:02.174Z,17.47
2019-06-20T21:52:29.867Z,17.48
2019-06-20T21:54:57.156Z,17.47
2019-06-20T21:57:24.211Z,17.47
2019-06-20T21:59:51.252Z,17.47
2019-06-20T22:02:18.303Z,17.47
2019-06-20T22:04:54.700Z,17.50
2019-06-20T22:07:21.887Z,17.54
2019-06-20T22:09:48.944Z,17.57
2019-06-20T22:12:15.978Z,17.62
2019-06-20T22:14:43.326Z,17.67
2019-06-20T22:17:10.375Z,17.71
2019-06-20T22:19:37.676Z,17.74
2019-06-20T22:22:04.719Z,17.75
2019-06-20T22:24:32.149Z,17.73
2019-06-20T22:26:59.505Z,17.68
2019-06-20T22:29:26.552Z,17.67
2019-06-20T22:31:53.587Z,17.68
2019-06-20T22:34:20.650Z,17.67
2019-06-20T22:36:47.989Z,17.67
2019-06-20T22:39:15.039Z,17.68
2019-06-20T22:41:42.086Z,17.69
2019-06-20T22:44:09.439Z,17.69
2019-06-20T22:46:36.488Z,17.69
2019-06-20T22:49:03.859Z,17.69
2019-06-20T22:51:31.145Z,17.67
2019-06-20T22:53:59.282Z,17.67
2019-06-20T22:56:26.334Z,17.68
2019-06-20T22:58:53.469Z,17.68
2019-06-20T23:01:20.822Z,17.67
2019-06-20T23:03:47.920Z,17.64
2019-06-20T23:06:15.234Z,17.61
2019-06-20T23:08:42.288Z,17.58
2019-06-20T23:11:09.743Z,17.58
2019-06-20T23:13:36.796Z,17.54
2019-06-20T23:16:03.845Z,17.51
2019-06-20T23:18:31.189Z,17.49
2019-06-20T23:21:04.524Z,17.45
2019-06-20T23:23:27.627Z,17.40
2019-06-20T23:25:54.665Z,17.32
2019-06-20T23:28:21.722Z,17.25
2019-06-20T23:30:49.187Z,17.15
2019-06-20T23:33:16.539Z,17.04
2019-06-20T23:35:43.916Z,16.97
2019-06-20T23:38:11.027Z,16.85
2019-06-20T23:40:38.093Z,16.79
2019-06-20T23:43:05.152Z,16.76
2019-06-20T23:45:32.196Z,16.74
2019-06-20T23:47:59.503Z,16.71
2019-06-20T23:50:26.555Z,16.69
2019-06-20T23:52:53.849Z,16.65
2019-06-20T23:55:20.906Z,16.63
2019-06-20T23:57:47.945Z,16.60
